createdAt,value
2018-02-21T00:00:18.504Z,99.90
2018-02-21T00:02:47.480Z,99.90
2018-02-21T00:05:17.208Z,99.90
2018-02-21T00:07:46.158Z,99.90
2018-02-21T00:10:15.134Z,99.90
2018-02-21T00:12:44.085Z,99.90
2018-02-21T00:15:13.553Z,99.90
2018-02-21T00:17:42.508Z,99.90
2018-02-21T00:20:12.250Z,99.90
2018-02-21T00:22:41.608Z,99.90
2018-02-21T00:25:10.551Z,99.90
2018-02-21T00:27:39.573Z,99.90
2018-02-21T00:30:08.652Z,99.90
2018-02-21T00:32:38.512Z,99.90
2018-02-21T00:35:08.284Z,99.90
2018-02-21T00:37:37.433Z,99.90
2018-02-21T00:40:06.382Z,99.90
2018-02-21T00:42:35.841Z,99.90
2018-02-21T00:45:04.860Z,99.90
2018-02-21T00:47:34.592Z,99.90
2018-02-21T00:50:03.557Z,99.90
2018-02-21T00:52:32.502Z,99.90
2018-02-21T00:55:02.249Z,99.90
2018-02-21T00:57:31.224Z,99.90
2018-02-21T01:00:00.176Z,99.90
2018-02-21T01:02:29.593Z,99.90
2018-02-21T01:04:58.540Z,99.90
2018-02-21T01:07:27.893Z,99.90
2018-02-21T01:09:57.645Z,99.90
2018-02-21T01:12:26.586Z,99.90
2018-02-21T01:14:55.629Z,99.90
2018-02-21T01:17:24.613Z,99.90
2018-02-21T01:19:53.586Z,99.90
2018-02-21T01:22:22.580Z,99.90
2018-02-21T01:24:51.596Z,99.90
2018-02-21T01:27:21.374Z,99.90
2018-02-21T01:29:50.333Z,99.90
2018-02-21T01:32:19.719Z,99.90
2018-02-21T01:34:48.689Z,99.90
2018-02-21T01:37:17.711Z,99.90
2018-02-21T01:39:48.198Z,99.90
2018-02-21T01:42:17.563Z,99.90
2018-02-21T01:44:46.560Z,99.90
2018-02-21T01:47:15.529Z,99.90
2018-02-21T01:49:45.877Z,99.90
2018-02-21T01:52:15.276Z,99.90
2018-02-21T01:54:44.621Z,99.90
2018-02-21T01:57:13.613Z,99.90
2018-02-21T01:59:43.761Z,99.90
2018-02-21T02:02:12.805Z,99.90
2018-02-21T02:04:42.566Z,99.90
2018-02-21T02:07:11.508Z,99.90
2018-02-21T02:09:40.866Z,99.90
2018-02-21T02:12:09.882Z,99.90
2018-02-21T02:14:39.660Z,99.90
2018-02-21T02:17:08.622Z,99.90
2018-02-21T02:19:38.339Z,99.90
2018-02-21T02:22:07.704Z,99.90
2018-02-21T02:24:36.685Z,99.90
2018-02-21T02:27:06.431Z,99.90
2018-02-21T02:29:35.386Z,99.90
2018-02-21T02:32:04.755Z,99.90
2018-02-21T02:34:33.761Z,99.90
2018-02-21T02:37:03.081Z,99.90
2018-02-21T02:39:44.248Z,99.90
2018-02-21T02:42:13.649Z,99.90
2018-02-21T02:44:43.365Z,99.90
2018-02-21T02:47:13.124Z,99.90
2018-02-21T02:49:42.477Z,99.90
2018-02-21T02:52:12.197Z,99.90
2018-02-21T02:54:41.573Z,99.90
2018-02-21T02:57:10.562Z,99.90
2018-02-21T02:59:39.940Z,99.90
2018-02-21T03:02:09.285Z,99.90
2018-02-21T03:04:38.660Z,99.90
2018-02-21T03:07:07.608Z,99.90
2018-02-21T03:09:37.449Z,99.90
2018-02-21T03:12:06.839Z,99.90
2018-02-21T03:14:35.888Z,99.90
2018-02-21T03:17:05.625Z,99.90
2018-02-21T03:19:34.611Z,99.90
2018-02-21T03:22:03.568Z,99.90
2018-02-21T03:24:32.549Z,99.90
2018-02-21T03:27:01.566Z,99.90
2018-02-21T03:29:30.525Z,99.90
2018-02-21T03:31:59.485Z,99.90
2018-02-21T03:34:28.460Z,99.90
2018-02-21T03:36:57.414Z,99.90
2018-02-21T03:39:26.427Z,99.90
2018-02-21T03:41:56.173Z,99.90
2018-02-21T03:44:25.116Z,99.90
2018-02-21T03:46:54.500Z,99.90
2018-02-21T03:49:24.257Z,99.90
2018-02-21T03:51:53.606Z,99.90
2018-02-21T03:54:22.634Z,99.90
2018-02-21T03:56:51.616Z,99.90
2018-02-21T03:59:21.369Z,99.90
2018-02-21T04:01:50.312Z,99.90
2018-02-21T04:04:19.373Z,99.90
2018-02-21T04:06:48.325Z,99.90
2018-02-21T04:09:17.341Z,99.90
2018-02-21T04:11:47.458Z,99.90
2018-02-21T04:14:16.424Z,99.90
2018-02-21T04:16:46.158Z,99.90
2018-02-21T04:19:15.154Z,99.90
2018-02-21T04:21:44.891Z,99.90
2018-02-21T04:24:13.869Z,99.90
2018-02-21T04:26:43.280Z,99.90
2018-02-21T04:29:12.246Z,99.90
2018-02-21T04:31:42.405Z,99.90
2018-02-21T04:34:11.385Z,99.90
2018-02-21T04:36:41.133Z,99.90
2018-02-21T04:39:10.884Z,99.90
2018-02-21T04:41:39.850Z,99.90
2018-02-21T04:44:08.867Z,99.90
2018-02-21T04:46:37.811Z,99.90
2018-02-21T04:49:07.552Z,99.90
2018-02-21T04:51:36.510Z,99.90
2018-02-21T04:54:05.465Z,99.90
2018-02-21T04:56:42.942Z,99.90
2018-02-21T04:59:29.675Z,99.90
2018-02-21T05:01:58.654Z,99.90
2018-02-21T05:04:28.009Z,99.90
2018-02-21T05:06:57.739Z,99.90
2018-02-21T05:09:27.488Z,99.90
2018-02-21T05:11:56.844Z,99.90
2018-02-21T05:14:26.606Z,99.90
2018-02-21T05:16:55.543Z,99.90
2018-02-21T05:19:24.930Z,99.90
2018-02-21T05:21:53.895Z,99.90
2018-02-21T05:24:23.707Z,99.90
2018-02-21T05:26:53.523Z,99.90
2018-02-21T05:29:22.467Z,99.90
2018-02-21T05:31:51.481Z,99.90
2018-02-21T05:34:20.861Z,99.90
2018-02-21T05:36:49.928Z,99.90
2018-02-21T05:39:19.022Z,99.90
2018-02-21T05:41:48.728Z,99.90
2018-02-21T05:44:18.501Z,99.90
2018-02-21T05:46:47.666Z,99.90
2018-02-21T05:49:16.668Z,99.90
2018-02-21T05:51:45.663Z,99.90
2018-02-21T05:54:14.664Z,99.90
2018-02-21T05:56:43.626Z,99.90
2018-02-21T05:59:12.622Z,99.90
2018-02-21T06:01:41.633Z,99.90
2018-02-21T06:04:10.568Z,99.90
2018-02-21T06:06:40.319Z,99.90
2018-02-21T06:09:11.565Z,99.90
2018-02-21T06:11:40.569Z,99.90
2018-02-21T06:14:10.905Z,99.90
2018-02-21T06:16:39.864Z,99.90
2018-02-21T06:19:10.417Z,99.90
2018-02-21T06:21:39.766Z,99.90
2018-02-21T06:24:09.528Z,99.90
2018-02-21T06:26:38.473Z,99.90
2018-02-21T06:29:08.240Z,99.90
2018-02-21T06:31:37.593Z,99.90
2018-02-21T06:34:07.357Z,99.90
2018-02-21T06:36:36.393Z,99.90
2018-02-21T06:39:05.352Z,99.90
2018-02-21T06:41:34.402Z,99.90
2018-02-21T06:44:03.526Z,99.90
2018-02-21T06:46:32.485Z,99.90
2018-02-21T06:49:01.441Z,99.90
2018-02-21T06:51:31.194Z,99.90
2018-02-21T06:54:00.155Z,99.90
2018-02-21T06:56:29.525Z,99.90
2018-02-21T06:58:58.515Z,99.90
2018-02-21T07:01:28.245Z,99.90
2018-02-21T07:03:58.031Z,99.90
2018-02-21T07:06:27.557Z,99.90
2018-02-21T07:08:56.938Z,99.90
2018-02-21T07:11:26.695Z,99.90
2018-02-21T07:13:56.438Z,99.90
2018-02-21T07:16:25.848Z,99.90
2018-02-21T07:18:56.039Z,99.90
2018-02-21T07:21:25.790Z,99.90
2018-02-21T07:23:55.513Z,99.90
2018-02-21T07:26:25.283Z,99.90
2018-02-21T07:28:54.280Z,99.90
2018-02-21T07:31:23.646Z,99.90
2018-02-21T07:33:54.510Z,99.90
2018-02-21T07:36:24.466Z,99.90
2018-02-21T07:38:54.410Z,99.90
2018-02-21T07:41:24.556Z,99.90
2018-02-21T07:43:54.067Z,99.90
2018-02-21T07:46:23.378Z,99.90
2018-02-21T07:48:52.431Z,99.90
2018-02-21T07:51:23.311Z,99.90
2018-02-21T07:53:53.822Z,99.90
2018-02-21T07:56:23.859Z,99.90
2018-02-21T07:58:54.987Z,99.90
2018-02-21T08:01:25.705Z,99.90
2018-02-21T08:03:54.768Z,99.90
2018-02-21T08:06:23.799Z,99.90
2018-02-21T08:08:54.624Z,99.90
2018-02-21T08:11:24.702Z,99.90
2018-02-21T08:13:54.502Z,99.90
2018-02-21T08:16:24.724Z,99.90
2018-02-21T08:18:54.481Z,99.90
2018-02-21T08:21:24.751Z,99.90
2018-02-21T08:23:53.953Z,99.90
2018-02-21T08:26:22.977Z,99.90
2018-02-21T08:28:51.998Z,99.90
2018-02-21T08:31:21.351Z,99.90
2018-02-21T08:33:51.683Z,99.90
2018-02-21T08:36:21.443Z,99.90
2018-02-21T08:38:50.473Z,99.90
2018-02-21T08:41:19.496Z,99.90
2018-02-21T08:43:49.472Z,99.90
2018-02-21T08:46:18.588Z,99.90
2018-02-21T08:48:48.013Z,99.90
2018-02-21T08:51:18.278Z,99.90
2018-02-21T08:53:47.727Z,99.90
2018-02-21T08:56:17.518Z,99.90
2018-02-21T08:58:47.564Z,99.90
2018-02-21T09:01:18.065Z,99.90
2018-02-21T09:03:48.389Z,99.90
2018-02-21T09:06:17.889Z,99.90
2018-02-21T09:08:48.492Z,99.90
2018-02-21T09:11:17.489Z,99.90
2018-02-21T09:13:46.477Z,99.90
2018-02-21T09:16:15.820Z,99.90
2018-02-21T09:18:46.172Z,99.90
2018-02-21T09:21:17.015Z,99.90
2018-02-21T09:23:46.814Z,99.90
2018-02-21T09:26:15.892Z,99.90
2018-02-21T09:28:45.686Z,99.90
2018-02-21T09:31:14.715Z,99.90
2018-02-21T09:33:44.539Z,99.90
2018-02-21T09:36:13.947Z,99.90
2018-02-21T09:38:43.871Z,99.90
2018-02-21T09:41:12.938Z,99.90
2018-02-21T09:43:43.357Z,99.90
2018-02-21T09:46:12.738Z,99.90
2018-02-21T09:48:41.749Z,99.90
2018-02-21T09:51:10.754Z,99.90
2018-02-21T09:53:40.576Z,99.90
2018-02-21T09:56:09.639Z,99.90
2018-02-21T09:58:40.310Z,99.90
2018-02-21T10:01:09.295Z,99.90
2018-02-21T10:03:38.324Z,99.90
2018-02-21T10:06:07.371Z,99.90
2018-02-21T10:08:36.991Z,99.90
2018-02-21T10:11:06.385Z,99.90
2018-02-21T10:13:36.538Z,99.90
2018-02-21T10:16:05.522Z,99.90
2018-02-21T10:18:35.664Z,99.90
2018-02-21T10:21:04.781Z,99.90
2018-02-21T10:23:34.638Z,99.90
2018-02-21T10:26:04.261Z,99.90
2018-02-21T10:28:33.624Z,99.90
2018-02-21T10:31:02.626Z,99.90
2018-02-21T10:33:31.642Z,99.90
2018-02-21T10:36:00.587Z,99.90
2018-02-21T10:38:30.383Z,99.90
2018-02-21T10:40:59.320Z,99.90
2018-02-21T10:43:28.297Z,99.90
2018-02-21T10:45:57.272Z,99.90
2018-02-21T10:48:26.255Z,99.90
2018-02-21T10:50:55.208Z,99.90
2018-02-21T10:53:24.202Z,99.90
2018-02-21T10:55:53.576Z,99.90
2018-02-21T10:58:22.546Z,99.90
2018-02-21T11:00:57.212Z,99.90
2018-02-21T11:03:26.579Z,99.90
2018-02-21T11:05:56.362Z,99.90
2018-02-21T11:08:25.944Z,99.90
2018-02-21T11:10:55.688Z,99.90
2018-02-21T11:13:24.658Z,99.90
2018-02-21T11:15:53.615Z,99.90
2018-02-21T11:18:23.329Z,99.90
2018-02-21T11:20:52.323Z,99.90
2018-02-21T11:23:21.314Z,99.90
2018-02-21T11:25:50.226Z,99.90
2018-02-21T11:28:19.626Z,99.90
2018-02-21T11:30:48.582Z,99.90
2018-02-21T11:33:17.542Z,99.90
2018-02-21T11:35:46.496Z,99.90
2018-02-21T11:38:15.841Z,99.90
2018-02-21T11:40:44.820Z,99.90
2018-02-21T11:43:13.776Z,99.90
2018-02-21T11:45:43.508Z,99.90
2018-02-21T11:48:12.460Z,99.90
2018-02-21T11:50:41.530Z,99.90
2018-02-21T11:53:10.883Z,99.90
2018-02-21T11:55:40.276Z,99.90
2018-02-21T11:58:09.258Z,99.90
2018-02-21T12:00:38.250Z,99.90
2018-02-21T12:03:07.225Z,99.90
2018-02-21T12:05:36.198Z,98.30
2018-02-21T12:08:05.213Z,94.50
2018-02-21T12:10:34.201Z,93.20
2018-02-21T12:13:03.161Z,91.00
2018-02-21T12:15:32.523Z,82.90
2018-02-21T12:18:01.981Z,76.40
2018-02-21T12:20:30.913Z,75.80
2018-02-21T12:22:59.898Z,75.20
2018-02-21T12:25:29.307Z,67.10
2018-02-21T12:27:59.023Z,67.20
2018-02-21T12:30:28.021Z,63.10
2018-02-21T12:32:57.877Z,60.50
2018-02-21T12:35:27.631Z,56.80
2018-02-21T12:37:56.609Z,51.90
2018-02-21T12:40:31.179Z,48.90
2018-02-21T12:43:00.161Z,46.90
2018-02-21T12:45:29.293Z,45.40
2018-02-21T12:47:58.685Z,44.60
2018-02-21T12:50:28.460Z,42.80
2018-02-21T12:52:58.251Z,41.70
2018-02-21T12:55:27.646Z,41.70
2018-02-21T12:57:56.651Z,40.00
2018-02-21T13:00:26.774Z,41.60
2018-02-21T13:02:57.167Z,40.60
2018-02-21T13:05:27.020Z,42.50
2018-02-21T13:07:57.221Z,42.50
2018-02-21T13:10:28.741Z,42.80
2018-02-21T13:12:58.541Z,42.80
2018-02-21T13:15:29.935Z,42.10
2018-02-21T13:17:58.963Z,40.70
2018-02-21T13:20:27.969Z,40.20
2018-02-21T13:22:58.517Z,42.70
2018-02-21T13:25:29.265Z,44.20
2018-02-21T13:27:59.246Z,44.60
2018-02-21T13:30:28.253Z,46.10
2018-02-21T13:32:57.614Z,45.50
2018-02-21T13:35:27.329Z,46.90
2018-02-21T13:37:56.309Z,47.40
2018-02-21T13:40:25.269Z,46.70
2018-02-21T13:42:54.241Z,47.90
2018-02-21T13:45:23.649Z,47.30
2018-02-21T13:47:53.380Z,48.90
2018-02-21T13:50:22.732Z,48.90
2018-02-21T13:52:51.717Z,49.90
2018-02-21T13:55:20.668Z,51.00
2018-02-21T13:57:49.641Z,52.40
2018-02-21T14:00:19.385Z,52.50
2018-02-21T14:02:48.728Z,53.30
2018-02-21T14:05:17.705Z,53.40
2018-02-21T14:07:47.425Z,52.80
2018-02-21T14:10:17.180Z,54.00
2018-02-21T14:12:46.129Z,54.00
2018-02-21T14:15:15.880Z,54.20
2018-02-21T14:17:44.826Z,53.90
2018-02-21T14:20:13.824Z,55.50
2018-02-21T14:22:42.773Z,56.60
2018-02-21T14:25:11.766Z,57.70
2018-02-21T14:27:40.735Z,58.30
2018-02-21T14:30:11.992Z,60.50
2018-02-21T14:32:41.708Z,61.80
2018-02-21T14:35:11.064Z,67.70
2018-02-21T14:37:40.529Z,63.20
2018-02-21T14:40:09.481Z,64.60
2018-02-21T14:42:38.865Z,67.50
2018-02-21T14:45:08.658Z,75.30
2018-02-21T14:47:37.745Z,73.40
2018-02-21T14:50:06.730Z,82.10
2018-02-21T14:52:36.428Z,85.00
2018-02-21T14:55:05.397Z,91.70
2018-02-21T14:57:34.777Z,82.10
2018-02-21T15:00:03.727Z,82.10
2018-02-21T15:02:32.709Z,87.10
2018-02-21T15:05:02.454Z,82.30
2018-02-21T15:07:32.196Z,81.60
2018-02-21T15:10:01.173Z,83.20
2018-02-21T15:12:30.521Z,90.10
2018-02-21T15:15:00.313Z,97.40
2018-02-21T15:17:30.410Z,95.60
2018-02-21T15:19:59.441Z,95.50
2018-02-21T15:22:28.786Z,95.90
2018-02-21T15:24:58.533Z,97.80
2018-02-21T15:27:28.639Z,99.10
2018-02-21T15:29:58.436Z,98.70
2018-02-21T15:32:28.225Z,99.90
2018-02-21T15:34:57.185Z,99.90
2018-02-21T15:37:26.563Z,99.90
2018-02-21T15:39:55.516Z,99.90
2018-02-21T15:42:24.849Z,99.90
2018-02-21T15:44:53.865Z,99.90
2018-02-21T15:47:23.585Z,99.90
2018-02-21T15:49:53.369Z,99.90
2018-02-21T15:52:22.715Z,99.90
2018-02-21T15:54:52.221Z,99.90
2018-02-21T15:57:21.971Z,99.90
2018-02-21T15:59:51.604Z,99.90
2018-02-21T16:02:21.008Z,99.90
2018-02-21T16:04:50.784Z,99.90
2018-02-21T16:07:20.619Z,99.90
2018-02-21T16:09:50.369Z,99.90
2018-02-21T16:12:19.344Z,99.90
2018-02-21T16:14:48.709Z,99.90
2018-02-21T16:17:18.108Z,99.90
2018-02-21T16:19:47.089Z,99.90
2018-02-21T16:22:16.426Z,99.90
2018-02-21T16:24:46.101Z,99.90
2018-02-21T16:27:15.614Z,99.90
2018-02-21T16:29:44.653Z,99.90
2018-02-21T16:32:14.434Z,99.90
2018-02-21T16:34:43.492Z,99.90
2018-02-21T16:37:12.465Z,99.90
2018-02-21T16:39:41.435Z,99.90
2018-02-21T16:42:10.496Z,99.90
2018-02-21T16:44:40.934Z,99.90
2018-02-21T16:47:10.857Z,99.90
2018-02-21T16:49:40.647Z,99.90
2018-02-21T16:52:09.601Z,99.90
2018-02-21T16:54:40.091Z,99.90
2018-02-21T16:57:09.832Z,99.90
2018-02-21T16:59:41.131Z,99.90
2018-02-21T17:02:10.161Z,99.90
2018-02-21T17:04:39.505Z,99.90
2018-02-21T17:07:08.460Z,99.90
2018-02-21T17:09:37.448Z,99.90
2018-02-21T17:12:06.848Z,99.90
2018-02-21T17:14:35.806Z,99.90
2018-02-21T17:17:04.769Z,99.90
2018-02-21T17:19:34.571Z,99.90
2018-02-21T17:22:04.322Z,99.90
2018-02-21T17:24:33.306Z,99.90
2018-02-21T17:27:02.657Z,99.90
2018-02-21T17:29:33.200Z,99.90
2018-02-21T17:32:02.569Z,99.90
2018-02-21T17:34:31.557Z,99.90
2018-02-21T17:37:01.334Z,99.90
2018-02-21T17:39:30.312Z,99.90
2018-02-21T17:41:59.690Z,99.90
2018-02-21T17:44:28.644Z,99.90
2018-02-21T17:46:58.423Z,99.90
2018-02-21T17:49:27.449Z,99.90
2018-02-21T17:51:56.487Z,99.90
2018-02-21T17:54:26.212Z,99.90
2018-02-21T17:56:55.602Z,99.90
2018-02-21T17:59:24.541Z,99.90
2018-02-21T18:01:53.566Z,99.90
2018-02-21T18:04:22.604Z,99.90
2018-02-21T18:06:52.084Z,99.90
2018-02-21T18:09:21.874Z,99.90
2018-02-21T18:11:51.069Z,99.90
2018-02-21T18:14:20.053Z,99.90
2018-02-21T18:16:49.056Z,99.90
2018-02-21T18:19:18.814Z,99.90
2018-02-21T18:21:51.294Z,99.90
2018-02-21T18:24:20.676Z,99.90
2018-02-21T18:26:50.078Z,99.90
2018-02-21T18:29:20.073Z,99.90
2018-02-21T18:31:49.841Z,99.90
2018-02-21T18:34:19.589Z,99.90
2018-02-21T18:36:48.546Z,99.90
2018-02-21T18:39:17.717Z,99.90
2018-02-21T18:41:47.482Z,99.90
2018-02-21T18:44:16.457Z,99.90
2018-02-21T18:46:46.222Z,99.90
2018-02-21T18:49:15.238Z,99.90
2018-02-21T18:51:44.665Z,99.90
2018-02-21T18:54:13.693Z,99.90
2018-02-21T18:56:43.094Z,99.90
2018-02-21T18:59:12.496Z,99.90
2018-02-21T19:01:41.600Z,99.90
2018-02-21T19:04:12.252Z,99.90
2018-02-21T19:06:42.067Z,99.90
2018-02-21T19:09:11.107Z,99.90
2018-02-21T19:11:40.103Z,99.90
2018-02-21T19:14:09.578Z,99.90
2018-02-21T19:16:38.610Z,99.90
2018-02-21T19:19:08.390Z,99.90
2018-02-21T19:21:37.831Z,99.90
2018-02-21T19:24:06.810Z,99.90
2018-02-21T19:26:36.709Z,99.90
2018-02-21T19:29:05.720Z,99.90
2018-02-21T19:31:35.507Z,99.90
2018-02-21T19:34:05.168Z,99.90
2018-02-21T19:36:35.852Z,99.90
2018-02-21T19:39:06.020Z,99.90
2018-02-21T19:41:35.399Z,99.90
2018-02-21T19:44:04.721Z,99.90
2018-02-21T19:46:34.144Z,99.90
2018-02-21T19:49:03.351Z,99.90
2018-02-21T19:51:33.790Z,99.90
2018-02-21T19:54:03.578Z,99.90
2018-02-21T19:56:32.549Z,99.90
2018-02-21T19:59:01.569Z,99.90
2018-02-21T20:01:31.397Z,99.90
2018-02-21T20:04:00.705Z,99.90
2018-02-21T20:06:30.558Z,99.90
2018-02-21T20:09:00.515Z,99.90
2018-02-21T20:11:30.662Z,99.90
2018-02-21T20:14:00.909Z,99.90
2018-02-21T20:16:30.771Z,99.90
2018-02-21T20:18:59.795Z,99.90
2018-02-21T20:21:29.279Z,99.90
2018-02-21T20:23:58.329Z,99.90
2018-02-21T20:26:28.104Z,99.90
2018-02-21T20:28:57.547Z,99.90
2018-02-21T20:31:27.375Z,99.90
2018-02-21T20:33:57.068Z,99.90
2018-02-21T20:36:26.056Z,99.90
2018-02-21T20:38:55.861Z,99.90
2018-02-21T20:41:25.645Z,99.90
2018-02-21T20:43:55.463Z,99.90
2018-02-21T20:46:25.141Z,99.90
2018-02-21T20:48:54.524Z,99.90
2018-02-21T20:51:23.563Z,99.90
2018-02-21T20:53:52.572Z,99.90
2018-02-21T20:56:21.944Z,99.90
2018-02-21T20:58:50.926Z,99.90
2018-02-21T21:01:19.978Z,99.90
2018-02-21T21:03:49.871Z,99.90
2018-02-21T21:06:18.889Z,99.90
2018-02-21T21:08:48.666Z,99.90
2018-02-21T21:11:17.657Z,99.90
2018-02-21T21:13:47.473Z,99.90
2018-02-21T21:16:17.198Z,99.90
2018-02-21T21:18:47.547Z,99.90
2018-02-21T21:21:17.282Z,99.90
2018-02-21T21:23:46.318Z,99.90
2018-02-21T21:26:15.310Z,99.90
2018-02-21T21:28:44.355Z,99.90
2018-02-21T21:31:13.394Z,99.90
2018-02-21T21:33:42.415Z,99.90
2018-02-21T21:36:11.488Z,99.90
2018-02-21T21:38:40.474Z,99.90
2018-02-21T21:41:10.380Z,99.90
2018-02-21T21:43:39.345Z,99.90
2018-02-21T21:46:08.945Z,99.90
2018-02-21T21:48:38.681Z,99.90
2018-02-21T21:51:08.761Z,99.90
2018-02-21T21:53:37.727Z,99.90
2018-02-21T21:56:06.688Z,99.90
2018-02-21T21:58:35.750Z,99.90
2018-02-21T22:01:04.715Z,99.90
2018-02-21T22:03:33.766Z,99.90
2018-02-21T22:06:02.772Z,99.90
2018-02-21T22:08:32.499Z,99.90
2018-02-21T22:11:01.479Z,99.90
2018-02-21T22:13:31.196Z,99.90
2018-02-21T22:16:00.948Z,99.90
2018-02-21T22:18:30.294Z,99.90
2018-02-21T22:21:00.047Z,99.90
2018-02-21T22:23:28.997Z,99.90
2018-02-21T22:25:58.733Z,99.90
2018-02-21T22:28:27.717Z,99.90
2018-02-21T22:30:56.702Z,99.90
2018-02-21T22:33:25.749Z,99.90
2018-02-21T22:35:55.120Z,99.90
2018-02-21T22:38:24.476Z,99.90
2018-02-21T22:40:54.259Z,99.90
2018-02-21T22:43:23.292Z,99.90
2018-02-21T22:45:52.263Z,99.90
2018-02-21T22:48:21.281Z,99.90
2018-02-21T22:50:50.995Z,99.90
2018-02-21T22:53:20.758Z,99.90
2018-02-21T22:55:49.780Z,99.90
2018-02-21T22:58:19.686Z,99.90
2018-02-21T23:00:48.704Z,99.90
2018-02-21T23:03:18.114Z,99.90
2018-02-21T23:05:47.056Z,99.90
2018-02-21T23:08:16.006Z,99.90
2018-02-21T23:10:44.996Z,99.90
2018-02-21T23:13:13.954Z,99.90
2018-02-21T23:15:43.670Z,99.90
2018-02-21T23:18:13.113Z,99.90
2018-02-21T23:20:42.119Z,99.90
2018-02-21T23:23:11.073Z,99.90
2018-02-21T23:25:41.416Z,99.90
2018-02-21T23:28:10.368Z,99.90
2018-02-21T23:30:40.131Z,99.90
2018-02-21T23:33:09.093Z,99.90
2018-02-21T23:35:38.517Z,99.90
2018-02-21T23:38:07.575Z,99.90
2018-02-21T23:40:36.585Z,99.90
2018-02-21T23:43:05.540Z,99.90
2018-02-21T23:45:34.940Z,99.90
2018-02-21T23:48:03.955Z,99.90
2018-02-21T23:50:33.708Z,99.90
2018-02-21T23:53:03.446Z,99.90
2018-02-21T23:55:32.434Z,99.90
2018-02-21T23:58:01.433Z,99.90
